createdAt,value
2023-02-02T00:01:31.378Z,2.20
2023-02-02T00:04:02.284Z,2.60
2023-02-02T00:06:34.167Z,2.50
2023-02-02T00:09:05.510Z,2.60
2023-02-02T00:11:36.272Z,2.60
2023-02-02T00:14:07.965Z,2.30
2023-02-02T00:16:44.145Z,2.30
2023-02-02T00:19:17.816Z,2.00
2023-02-02T00:24:19.982Z,2.30
2023-02-02T00:26:52.981Z,2.30
2023-02-02T00:29:27.115Z,2.80
2023-02-02T00:31:58.214Z,2.90
2023-02-02T00:34:28.862Z,2.40
2023-02-02T00:36:59.522Z,2.20
2023-02-02T00:39:30.364Z,2.20
2023-02-02T00:42:01.016Z,2.00
2023-02-02T00:44:49.453Z,2.20
2023-02-02T00:47:20.487Z,2.70
2023-02-02T00:49:51.245Z,2.90
2023-02-02T00:52:21.826Z,2.40
2023-02-02T00:54:52.876Z,2.20
2023-02-02T00:57:23.617Z,2.20
2023-02-02T00:59:54.696Z,2.30
2023-02-02T01:02:25.641Z,3.30
2023-02-02T01:04:56.433Z,2.20
2023-02-02T01:07:27.231Z,2.00
2023-02-02T01:09:57.919Z,3.00
2023-02-02T01:12:29.077Z,2.30
2023-02-02T01:14:59.751Z,2.30
2023-02-02T01:17:30.872Z,2.50
2023-02-02T01:20:01.620Z,2.20
2023-02-02T01:22:34.085Z,2.50
2023-02-02T01:25:05.022Z,2.00
2023-02-02T01:27:35.735Z,2.00
2023-02-02T01:30:08.064Z,2.50
2023-02-02T01:32:38.970Z,1.90
2023-02-02T01:35:11.555Z,2.20
2023-02-02T01:37:44.515Z,3.20
2023-02-02T01:40:18.632Z,2.30
2023-02-02T01:42:49.600Z,2.40
2023-02-02T01:45:28.623Z,2.30
2023-02-02T01:48:01.510Z,2.20
2023-02-02T01:50:35.788Z,2.00
2023-02-02T01:53:08.988Z,2.00
2023-02-02T01:55:42.625Z,1.90
2023-02-02T01:58:16.964Z,1.90
2023-02-02T02:00:47.781Z,1.90
2023-02-02T02:03:21.763Z,2.10
2023-02-02T02:05:57.147Z,1.80
2023-02-02T02:08:30.987Z,2.40
2023-02-02T02:11:01.880Z,2.00
2023-02-02T02:13:53.647Z,1.70
2023-02-02T02:16:32.414Z,2.10
2023-02-02T02:19:13.471Z,2.30
2023-02-02T02:22:14.632Z,1.80
2023-02-02T02:25:45.641Z,2.00
2023-02-02T02:28:44.309Z,1.90
2023-02-02T02:31:56.096Z,1.70
2023-02-02T02:34:34.534Z,1.70
2023-02-02T02:37:13.054Z,1.70
2023-02-02T02:39:55.629Z,2.20
2023-02-02T02:42:30.529Z,1.70
2023-02-02T02:45:05.623Z,2.20
2023-02-02T02:47:38.639Z,2.20
2023-02-02T02:50:11.042Z,1.90
2023-02-02T02:52:42.699Z,1.70
2023-02-02T02:55:14.692Z,1.70
2023-02-02T02:58:00.159Z,1.90
2023-02-02T03:00:47.581Z,1.70
2023-02-02T03:03:27.482Z,1.60
2023-02-02T03:06:06.328Z,1.80
2023-02-02T03:08:41.108Z,2.70
2023-02-02T03:11:14.367Z,1.70
2023-02-02T03:13:45.628Z,1.80
2023-02-02T03:16:18.109Z,2.40
2023-02-02T03:18:48.836Z,1.80
2023-02-02T03:21:19.808Z,1.60
2023-02-02T03:23:50.563Z,1.50
2023-02-02T03:26:21.774Z,1.80
2023-02-02T03:28:54.837Z,1.60
2023-02-02T03:31:28.256Z,2.00
2023-02-02T03:33:59.268Z,1.70
2023-02-02T03:36:30.238Z,2.20
2023-02-02T03:39:00.903Z,2.20
2023-02-02T03:41:31.591Z,1.70
2023-02-02T03:44:02.240Z,1.60
2023-02-02T03:46:33.032Z,1.60
2023-02-02T03:49:03.829Z,1.60
2023-02-02T03:51:34.964Z,1.60
2023-02-02T03:54:06.124Z,2.00
2023-02-02T03:56:36.866Z,1.30
2023-02-02T03:59:07.719Z,1.40
2023-02-02T04:01:38.452Z,2.00
2023-02-02T04:04:09.317Z,1.50
2023-02-02T04:06:40.018Z,1.60
2023-02-02T04:09:11.088Z,2.00
2023-02-02T04:11:41.676Z,1.40
2023-02-02T04:14:12.407Z,1.40
2023-02-02T04:16:43.375Z,1.10
2023-02-02T04:19:14.121Z,1.40
2023-02-02T04:21:44.960Z,2.60
2023-02-02T04:24:16.698Z,1.10
2023-02-02T04:26:47.469Z,1.20
2023-02-02T04:29:18.833Z,1.40
2023-02-02T04:31:49.971Z,1.40
2023-02-02T04:34:20.783Z,1.60
2023-02-02T04:36:51.428Z,1.80
2023-02-02T04:39:22.165Z,2.90
2023-02-02T04:41:52.913Z,1.60
2023-02-02T04:44:23.640Z,1.90
2023-02-02T04:46:55.769Z,1.40
2023-02-02T04:49:26.854Z,1.40
2023-02-02T04:51:57.548Z,1.40
2023-02-02T04:54:28.305Z,1.50
2023-02-02T04:56:59.128Z,2.00
2023-02-02T04:59:32.371Z,1.70
2023-02-02T05:02:04.414Z,1.90
2023-02-02T05:04:35.101Z,1.90
2023-02-02T05:07:05.908Z,1.20
2023-02-02T05:09:36.828Z,1.40
2023-02-02T05:12:08.105Z,2.20
2023-02-02T05:14:38.748Z,5.80
2023-02-02T05:17:09.472Z,6.20
2023-02-02T05:19:40.215Z,4.90
2023-02-02T05:22:11.169Z,5.00
2023-02-02T05:24:41.975Z,6.30
2023-02-02T05:27:12.694Z,6.30
2023-02-02T05:29:43.437Z,6.40
2023-02-02T05:32:14.115Z,6.00
2023-02-02T05:34:45.455Z,5.90
2023-02-02T05:37:16.098Z,4.10
2023-02-02T05:39:46.901Z,4.40
2023-02-02T05:42:17.775Z,5.40
2023-02-02T05:44:48.525Z,2.00
2023-02-02T05:47:19.422Z,4.90
2023-02-02T05:49:50.553Z,5.10
2023-02-02T05:52:23.734Z,3.80
2023-02-02T05:54:54.441Z,7.50
2023-02-02T05:57:25.122Z,3.20
2023-02-02T05:59:56.208Z,3.50
2023-02-02T06:02:29.783Z,2.40
2023-02-02T06:05:00.541Z,4.10
2023-02-02T06:07:31.700Z,2.80
2023-02-02T06:10:02.359Z,4.80
2023-02-02T06:12:33.253Z,2.20
2023-02-02T06:15:04.116Z,3.30
2023-02-02T06:17:35.072Z,2.60
2023-02-02T06:20:07.420Z,4.10
2023-02-02T06:22:38.258Z,3.60
2023-02-02T06:25:10.686Z,2.30
2023-02-02T06:27:41.385Z,2.30
2023-02-02T06:30:15.439Z,3.30
2023-02-02T06:32:46.339Z,2.20
2023-02-02T06:35:17.407Z,2.40
2023-02-02T06:37:49.241Z,4.30
2023-02-02T06:40:20.964Z,2.30
2023-02-02T06:42:58.753Z,2.30
2023-02-02T06:45:30.861Z,1.50
2023-02-02T06:48:04.203Z,2.30
2023-02-02T06:50:34.826Z,2.20
2023-02-02T06:53:05.636Z,2.30
2023-02-02T06:55:36.497Z,2.40
2023-02-02T06:58:07.547Z,2.00
2023-02-02T07:00:38.887Z,2.50
2023-02-02T07:03:09.527Z,1.80
2023-02-02T07:05:40.170Z,2.60
2023-02-02T07:08:10.935Z,2.90
2023-02-02T07:11:13.042Z,2.30
2023-02-02T07:13:34.967Z,1.40
2023-02-02T07:16:08.154Z,1.70
2023-02-02T07:18:39.442Z,3.70
2023-02-02T07:21:11.104Z,2.20
2023-02-02T07:23:41.754Z,1.70
2023-02-02T07:26:13.619Z,2.40
2023-02-02T07:28:45.052Z,1.30
2023-02-02T07:31:21.430Z,1.60
2023-02-02T07:33:53.176Z,1.60
2023-02-02T07:36:26.048Z,1.90
2023-02-02T07:38:57.789Z,1.60
2023-02-02T07:41:29.038Z,1.30
2023-02-02T07:44:00.133Z,2.20
2023-02-02T07:46:31.333Z,1.40
2023-02-02T07:49:02.125Z,1.50
2023-02-02T07:51:32.868Z,1.30
2023-02-02T07:54:04.042Z,1.60
2023-02-02T07:56:34.816Z,2.10
2023-02-02T07:59:06.877Z,1.90
2023-02-02T08:01:37.684Z,0.70
2023-02-02T08:04:08.863Z,1.40
2023-02-02T08:06:41.461Z,1.30
2023-02-02T08:09:12.801Z,1.40
2023-02-02T08:11:43.565Z,1.90
2023-02-02T08:14:15.531Z,1.10
2023-02-02T08:16:46.463Z,1.50
2023-02-02T08:19:17.359Z,1.90
2023-02-02T08:21:48.398Z,1.30
2023-02-02T08:24:19.179Z,1.30
2023-02-02T08:26:50.040Z,2.50
2023-02-02T08:29:20.969Z,2.10
2023-02-02T08:31:51.816Z,2.30
2023-02-02T08:34:22.529Z,1.10
2023-02-02T08:36:53.279Z,1.40
2023-02-02T08:39:24.699Z,1.10
2023-02-02T08:41:59.273Z,2.50
2023-02-02T08:45:00.869Z,0.90
2023-02-02T08:47:21.336Z,1.20
2023-02-02T08:49:52.304Z,1.40
2023-02-02T08:52:25.608Z,1.00
2023-02-02T08:54:57.073Z,2.20
2023-02-02T08:57:28.528Z,1.50
2023-02-02T08:59:59.592Z,1.50
2023-02-02T09:02:30.351Z,1.30
2023-02-02T09:05:01.198Z,0.90
2023-02-02T09:07:32.830Z,1.60
2023-02-02T09:10:03.874Z,0.90
2023-02-02T09:12:34.780Z,1.20
2023-02-02T09:15:06.243Z,0.90
2023-02-02T09:17:37.279Z,0.90
2023-02-02T09:20:09.910Z,0.80
2023-02-02T09:22:41.150Z,1.70
2023-02-02T09:25:12.381Z,1.20
2023-02-02T09:27:43.260Z,1.80
2023-02-02T09:30:16.169Z,1.60
2023-02-02T09:32:49.725Z,2.10
2023-02-02T09:35:20.765Z,2.10
2023-02-02T09:37:51.503Z,1.70
2023-02-02T09:40:23.124Z,2.20
2023-02-02T09:43:04.178Z,1.40
2023-02-02T09:45:47.537Z,2.10
2023-02-02T09:48:27.181Z,0.90
2023-02-02T09:51:01.134Z,1.80
2023-02-02T09:53:54.756Z,2.10
2023-02-02T09:56:29.244Z,1.00
2023-02-02T09:59:18.745Z,0.70
2023-02-02T10:01:55.529Z,0.80
2023-02-02T10:04:31.973Z,1.60
2023-02-02T10:07:09.393Z,1.80
2023-02-02T10:09:47.538Z,2.50
2023-02-02T10:12:31.322Z,1.30
2023-02-02T10:15:12.646Z,1.90
2023-02-02T10:17:50.105Z,1.70
2023-02-02T10:20:39.749Z,1.30
2023-02-02T10:23:21.853Z,1.00
2023-02-02T10:25:58.731Z,2.00
2023-02-02T10:28:59.883Z,1.80
2023-02-02T10:31:44.029Z,1.90
2023-02-02T10:34:23.470Z,1.20
2023-02-02T10:37:16.410Z,2.00
2023-02-02T10:40:02.327Z,1.80
2023-02-02T10:42:45.516Z,1.20
2023-02-02T10:45:20.465Z,1.30
2023-02-02T10:47:52.033Z,2.40
2023-02-02T10:50:24.252Z,3.30
2023-02-02T10:53:01.401Z,1.40
2023-02-02T10:55:41.742Z,1.30
2023-02-02T10:58:22.091Z,2.60
2023-02-02T11:00:56.175Z,1.30
2023-02-02T11:03:30.200Z,1.70
2023-02-02T11:06:26.783Z,1.90
2023-02-02T11:09:02.439Z,1.30
2023-02-02T11:11:36.403Z,1.70
2023-02-02T11:14:19.037Z,2.00
2023-02-02T11:17:04.922Z,2.60
2023-02-02T11:19:37.802Z,1.70
2023-02-02T11:22:25.395Z,2.10
2023-02-02T11:24:56.837Z,1.00
2023-02-02T11:27:30.437Z,2.10
2023-02-02T11:32:34.036Z,1.80
2023-02-02T11:35:23.539Z,1.50
2023-02-02T11:38:09.810Z,2.30
2023-02-02T11:40:45.911Z,1.90
2023-02-02T11:43:26.956Z,1.30
2023-02-02T11:46:02.965Z,1.20
2023-02-02T11:48:37.520Z,1.40
2023-02-02T11:51:22.134Z,1.80
2023-02-02T11:54:03.176Z,2.10
2023-02-02T11:56:36.745Z,1.90
2023-02-02T11:59:27.500Z,1.70
2023-02-02T12:02:24.984Z,1.40
2023-02-02T12:04:57.730Z,2.00
2023-02-02T12:07:30.933Z,1.10
2023-02-02T12:10:05.836Z,2.00
2023-02-02T12:12:46.343Z,1.20
2023-02-02T12:15:27.237Z,2.10
2023-02-02T12:18:06.208Z,2.30
2023-02-02T12:20:46.935Z,1.00
2023-02-02T12:23:32.064Z,1.40
2023-02-02T12:26:18.127Z,1.70
2023-02-02T12:29:12.779Z,1.50
2023-02-02T12:31:54.553Z,2.30
2023-02-02T12:34:37.286Z,1.70
2023-02-02T12:37:18.973Z,1.30
2023-02-02T12:40:04.309Z,1.80
2023-02-02T12:43:05.714Z,2.20
2023-02-02T12:45:52.976Z,1.20
2023-02-02T12:48:40.523Z,1.00
2023-02-02T12:51:37.781Z,1.70
2023-02-02T12:54:44.659Z,1.50
2023-02-02T12:57:31.455Z,1.30
2023-02-02T13:00:40.079Z,1.20
2023-02-02T13:03:31.059Z,2.20
2023-02-02T13:06:25.102Z,1.10
2023-02-02T13:09:02.893Z,1.40
2023-02-02T13:11:42.884Z,1.70
2023-02-02T13:14:18.686Z,0.80
2023-02-02T13:16:53.906Z,0.90
2023-02-02T13:19:37.869Z,1.90
2023-02-02T13:22:13.312Z,2.20
2023-02-02T13:24:48.555Z,1.10
2023-02-02T13:27:22.760Z,1.40
2023-02-02T13:29:57.144Z,1.50
2023-02-02T13:32:32.093Z,1.20
2023-02-02T13:35:07.812Z,2.20
2023-02-02T13:37:46.476Z,1.20
2023-02-02T13:40:29.769Z,1.60
2023-02-02T13:43:13.863Z,2.10
2023-02-02T13:45:56.142Z,1.20
2023-02-02T13:48:35.206Z,1.10
2023-02-02T13:51:21.816Z,1.50
2023-02-02T13:54:09.509Z,1.60
2023-02-02T13:56:52.622Z,1.40
2023-02-02T13:59:45.836Z,1.00
2023-02-02T14:02:25.491Z,1.20
2023-02-02T14:07:41.922Z,1.20
2023-02-02T14:10:26.711Z,1.50
2023-02-02T14:13:06.338Z,1.50
2023-02-02T14:15:44.535Z,1.40
2023-02-02T14:18:35.491Z,0.60
2023-02-02T14:21:06.441Z,1.10
2023-02-02T14:23:56.586Z,1.60
2023-02-02T14:26:47.926Z,1.40
2023-02-02T14:29:58.993Z,1.50
2023-02-02T14:32:42.275Z,1.30
2023-02-02T14:35:47.692Z,1.50
2023-02-02T14:38:32.043Z,1.20
2023-02-02T14:41:14.779Z,2.10
2023-02-02T14:43:51.217Z,1.10
2023-02-02T14:46:34.457Z,2.00
2023-02-02T14:49:35.570Z,1.40
2023-02-02T14:52:06.680Z,0.70
2023-02-02T14:54:42.774Z,1.40
2023-02-02T14:57:29.367Z,1.50
2023-02-02T15:00:01.852Z,0.80
2023-02-02T15:02:37.555Z,0.60
2023-02-02T15:05:40.474Z,0.50
2023-02-02T15:08:21.905Z,0.70
2023-02-02T15:11:25.160Z,0.60
2023-02-02T15:14:06.982Z,2.60
2023-02-02T15:16:41.223Z,1.20
2023-02-02T15:19:22.349Z,1.20
2023-02-02T15:21:56.795Z,1.20
2023-02-02T15:24:30.921Z,1.00
2023-02-02T15:27:04.824Z,0.80
2023-02-02T15:29:42.894Z,0.50
2023-02-02T15:32:20.611Z,1.90
2023-02-02T15:34:54.568Z,0.50
2023-02-02T15:37:36.129Z,1.30
2023-02-02T15:40:09.682Z,1.30
2023-02-02T15:42:56.905Z,2.30
2023-02-02T15:45:38.068Z,1.50
2023-02-02T15:48:25.688Z,0.60
2023-02-02T15:50:58.162Z,1.40
2023-02-02T15:53:33.445Z,1.10
2023-02-02T15:56:22.043Z,1.40
2023-02-02T15:58:55.019Z,0.90
2023-02-02T16:01:27.409Z,0.90
2023-02-02T16:04:08.234Z,1.20
2023-02-02T16:06:39.525Z,0.90
2023-02-02T16:09:16.311Z,0.90
2023-02-02T16:11:49.305Z,0.90
2023-02-02T16:14:20.641Z,1.30
2023-02-02T16:16:51.596Z,3.90
2023-02-02T16:19:24.569Z,2.60
2023-02-02T16:21:59.672Z,3.40
2023-02-02T16:24:34.178Z,4.80
2023-02-02T16:27:07.007Z,2.90
2023-02-02T16:29:40.793Z,3.70
2023-02-02T16:32:28.609Z,4.30
2023-02-02T16:35:00.184Z,1.90
2023-02-02T16:37:33.287Z,2.70
2023-02-02T16:43:17.102Z,3.20
2023-02-02T16:45:50.397Z,4.30
2023-02-02T16:48:33.366Z,3.10
2023-02-02T16:51:22.726Z,2.00
2023-02-02T16:54:14.630Z,1.10
2023-02-02T16:56:48.517Z,1.50
2023-02-02T16:59:23.889Z,1.90
2023-02-02T17:01:57.706Z,2.30
2023-02-02T17:04:30.538Z,3.90
2023-02-02T17:07:11.846Z,1.50
2023-02-02T17:09:45.397Z,1.20
2023-02-02T17:12:34.138Z,1.80
2023-02-02T17:15:35.192Z,1.70
2023-02-02T17:18:07.195Z,3.10
2023-02-02T17:20:40.923Z,2.60
2023-02-02T17:23:18.202Z,2.60
2023-02-02T17:25:49.224Z,5.60
2023-02-02T17:28:22.251Z,7.00
2023-02-02T17:30:59.382Z,5.40
2023-02-02T17:33:35.096Z,6.00
2023-02-02T17:36:07.658Z,4.50
2023-02-02T17:38:39.881Z,5.60
2023-02-02T17:41:14.411Z,3.40
2023-02-02T17:43:45.663Z,3.50
2023-02-02T17:46:16.598Z,2.80
2023-02-02T17:48:47.790Z,4.80
2023-02-02T17:51:19.347Z,8.70
2023-02-02T17:53:50.291Z,3.10
2023-02-02T17:56:22.124Z,6.40
2023-02-02T17:58:53.165Z,2.80
2023-02-02T18:01:24.390Z,1.20
2023-02-02T18:03:56.174Z,3.20
2023-02-02T18:06:27.254Z,1.80
2023-02-02T18:08:58.208Z,2.80
2023-02-02T18:11:29.351Z,4.00
2023-02-02T18:14:00.852Z,1.20
2023-02-02T18:16:32.739Z,1.20
2023-02-02T18:19:04.652Z,2.30
2023-02-02T18:21:35.906Z,1.20
2023-02-02T18:24:07.858Z,1.30
2023-02-02T18:26:39.048Z,1.00
2023-02-02T18:29:09.998Z,2.40
2023-02-02T18:31:42.396Z,2.60
2023-02-02T18:34:13.415Z,1.70
2023-02-02T18:36:44.510Z,0.90
2023-02-02T18:39:15.750Z,1.30
2023-02-02T18:41:47.068Z,1.00
2023-02-02T18:44:18.564Z,1.50
2023-02-02T18:46:49.925Z,1.30
2023-02-02T18:49:21.347Z,2.20
2023-02-02T18:51:52.724Z,1.80
2023-02-02T18:54:23.655Z,0.60
2023-02-02T18:56:54.609Z,2.30
2023-02-02T18:59:25.605Z,0.70
2023-02-02T19:01:56.847Z,1.20
2023-02-02T19:04:27.982Z,1.40
2023-02-02T19:07:16.691Z,0.60
2023-02-02T19:09:47.670Z,1.20
2023-02-02T19:12:18.635Z,1.40
2023-02-02T19:14:49.843Z,0.60
2023-02-02T19:17:25.365Z,1.20
2023-02-02T19:20:01.720Z,0.70
2023-02-02T19:22:33.713Z,1.40
2023-02-02T19:25:16.409Z,1.60
2023-02-02T19:27:47.671Z,1.60
2023-02-02T19:30:23.283Z,3.50
2023-02-02T19:32:54.473Z,0.70
2023-02-02T19:35:27.827Z,1.20
2023-02-02T19:38:03.096Z,0.80
2023-02-02T19:40:34.922Z,0.60
2023-02-02T19:43:16.001Z,0.80
2023-02-02T19:45:48.019Z,0.60
2023-02-02T19:48:21.813Z,1.50
2023-02-02T19:50:53.811Z,0.80
2023-02-02T19:53:28.496Z,1.20
2023-02-02T19:55:59.435Z,0.80
2023-02-02T19:58:37.237Z,1.40
2023-02-02T20:01:18.697Z,1.10
2023-02-02T20:03:51.111Z,1.40
2023-02-02T20:06:26.853Z,1.00
2023-02-02T20:08:58.256Z,0.40
2023-02-02T20:11:35.800Z,1.20
2023-02-02T20:14:29.355Z,1.20
2023-02-02T20:17:04.380Z,1.10
2023-02-02T20:19:41.544Z,0.90
2023-02-02T20:22:25.594Z,2.10
2023-02-02T20:24:58.181Z,1.00
2023-02-02T20:27:30.954Z,1.00
2023-02-02T20:30:19.145Z,0.60
2023-02-02T20:32:58.689Z,0.90
2023-02-02T20:35:38.096Z,0.90
2023-02-02T20:38:22.027Z,0.90
2023-02-02T20:40:53.729Z,0.80
2023-02-02T20:43:24.854Z,0.70
2023-02-02T20:45:56.194Z,0.60
2023-02-02T20:48:27.731Z,0.60
2023-02-02T20:50:58.897Z,1.10
2023-02-02T20:53:29.761Z,1.10
2023-02-02T20:56:02.211Z,0.90
2023-02-02T20:58:33.262Z,1.10
2023-02-02T21:01:05.849Z,1.50
2023-02-02T21:03:36.985Z,1.70
2023-02-02T21:06:08.120Z,2.60
2023-02-02T21:08:39.381Z,1.10
2023-02-02T21:11:10.370Z,0.60
2023-02-02T21:13:42.669Z,0.80
2023-02-02T21:16:13.888Z,1.10
2023-02-02T21:18:47.295Z,1.10
2023-02-02T21:21:21.129Z,1.80
2023-02-02T21:26:27.172Z,2.40
2023-02-02T21:28:58.554Z,1.10
2023-02-02T21:31:29.697Z,1.00
2023-02-02T21:34:00.785Z,2.40
2023-02-02T21:36:36.536Z,1.60
2023-02-02T21:39:17.300Z,1.40
2023-02-02T21:41:48.695Z,1.30
2023-02-02T21:44:22.482Z,2.10
2023-02-02T21:46:54.540Z,2.00
2023-02-02T21:49:28.823Z,2.00
2023-02-02T21:52:03.373Z,2.30
2023-02-02T21:54:39.125Z,0.90
2023-02-02T21:57:17.507Z,2.00
2023-02-02T21:59:53.001Z,1.50
2023-02-02T22:02:39.554Z,1.90
2023-02-02T22:05:19.707Z,2.00
2023-02-02T22:07:53.460Z,1.60
2023-02-02T22:10:37.193Z,2.10
2023-02-02T22:13:17.954Z,1.00
2023-02-02T22:15:51.144Z,1.20
2023-02-02T22:18:24.689Z,0.80
2023-02-02T22:20:56.667Z,1.70
2023-02-02T22:23:28.999Z,1.30
2023-02-02T22:26:01.248Z,1.20
2023-02-02T22:28:39.859Z,0.80
2023-02-02T22:31:12.587Z,2.30
2023-02-02T22:33:43.407Z,1.30
2023-02-02T22:36:14.433Z,1.60
2023-02-02T22:38:45.276Z,1.00
2023-02-02T22:41:16.599Z,1.30
2023-02-02T22:43:47.596Z,1.10
2023-02-02T22:46:18.375Z,0.80
2023-02-02T22:48:49.147Z,1.30
2023-02-02T22:51:20.299Z,1.70
2023-02-02T22:53:51.134Z,1.20
2023-02-02T22:56:21.974Z,0.90
2023-02-02T22:58:52.885Z,2.80
2023-02-02T23:01:23.757Z,0.60
2023-02-02T23:03:54.631Z,1.00
2023-02-02T23:06:25.565Z,0.70
2023-02-02T23:08:56.302Z,2.40
2023-02-02T23:11:27.078Z,1.80
2023-02-02T23:13:57.856Z,2.20
2023-02-02T23:16:28.626Z,1.30
2023-02-02T23:18:59.532Z,0.60
2023-02-02T23:21:30.378Z,1.40
2023-02-02T23:24:01.008Z,1.20
2023-02-02T23:26:31.640Z,1.80
2023-02-02T23:29:02.352Z,3.10
2023-02-02T23:31:33.358Z,0.90
2023-02-02T23:34:04.476Z,1.00
2023-02-02T23:36:35.131Z,2.20
2023-02-02T23:39:06.311Z,1.70
2023-02-02T23:41:37.095Z,0.90
2023-02-02T23:44:07.936Z,1.70
2023-02-02T23:46:39.812Z,1.80
2023-02-02T23:49:10.845Z,1.50
2023-02-02T23:51:41.963Z,1.80
2023-02-02T23:54:14.565Z,2.00
2023-02-02T23:56:45.380Z,1.20
2023-02-02T23:59:15.991Z,1.30
